Terminal Aerodrome Forecast
Issued by NWS

Home | Current Version | Previous Version | Text Only | Print | Product List | Glossary On
Versions: 1 2 3 4 5 6 7 8 9 10 11 12 13 14 15
000
FTUS45 KRIW 240526
TAFCPR
TAF
KCPR 240526Z 2406/2506 25012G18KT P6SM VCSH SCT045 BKN060
     FM240900 24009KT P6SM SCT060
     FM241600 27012G17KT P6SM FEW070
     FM242200 26014G22KT P6SM VCTS BKN050CB
     FM250300 23016G24KT P6SM VCSH SCT050 BKN080=

USA.gov is the U.S. government's official web portal to all federal, state and local government web resources and services.